sensor_id;sensor_type;location;lat;lon;timestamp;pressure;altitude;pressure_sealevel;temperature;humidity
51603;BME280;37954;51.980;5.850;2023-01-15T00:03:40;99448.19;;;7.78;93.17
51603;BME280;37954;51.980;5.850;2023-01-15T00:07:51;99442.34;;;7.81;93.18
51603;BME280;37954;51.980;5.850;2023-01-15T00:12:04;99450.81;;;7.90;93.32
51603;BME280;37954;51.980;5.850;2023-01-15T00:16:21;99458.59;;;7.91;92.72
51603;BME280;37954;51.980;5.850;2023-01-15T00:20:33;99458.59;;;7.91;92.92
51603;BME280;37954;51.980;5.850;2023-01-15T00:24:45;99454.63;;;7.94;92.92
51603;BME280;37954;51.980;5.850;2023-01-15T00:29:15;99456.16;;;7.90;93.13
51603;BME280;37954;51.980;5.850;2023-01-15T00:33:27;99468.94;;;7.88;92.61
51603;BME280;37954;51.980;5.850;2023-01-15T00:37:39;99447.59;;;7.76;92.48
51603;BME280;37954;51.980;5.850;2023-01-15T00:41:51;99447.50;;;7.71;92.31
51603;BME280;37954;51.980;5.850;2023-01-15T00:46:03;99451.44;;;7.68;92.15
51603;BME280;37954;51.980;5.850;2023-01-15T00:50:16;99451.22;;;7.70;92.21
51603;BME280;37954;51.980;5.850;2023-01-15T00:54:27;99468.88;;;7.71;91.76
51603;BME280;37954;51.980;5.850;2023-01-15T00:58:39;99453.53;;;7.66;91.06
51603;BME280;37954;51.980;5.850;2023-01-15T01:02:51;99460.50;;;7.67;91.41
51603;BME280;37954;51.980;5.850;2023-01-15T01:07:02;99462.50;;;7.60;90.64
51603;BME280;37954;51.980;5.850;2023-01-15T01:11:17;99463.31;;;7.61;90.37
51603;BME280;37954;51.980;5.850;2023-01-15T01:15:32;99461.13;;;7.58;89.79
51603;BME280;37954;51.980;5.850;2023-01-15T01:19:44;99444.28;;;7.57;89.87
51603;BME280;37954;51.980;5.850;2023-01-15T01:23:59;99461.13;;;7.58;89.22
51603;BME280;37954;51.980;5.850;2023-01-15T01:28:11;99464.03;;;7.56;89.75
51603;BME280;37954;51.980;5.850;2023-01-15T01:32:23;99464.72;;;7.52;88.58
51603;BME280;37954;51.980;5.850;2023-01-15T01:36:36;99444.28;;;7.46;89.09
51603;BME280;37954;51.980;5.850;2023-01-15T01:40:48;99465.66;;;7.46;89.04
51603;BME280;37954;51.980;5.850;2023-01-15T01:45:06;99454.06;;;7.40;88.48
51603;BME280;37954;51.980;5.850;2023-01-15T01:49:19;99451.63;;;7.39;88.30
51603;BME280;37954;51.980;5.850;2023-01-15T01:53:32;99459.97;;;7.42;87.67
51603;BME280;37954;51.980;5.850;2023-01-15T01:57:46;99463.94;;;7.40;87.83
51603;BME280;37954;51.980;5.850;2023-01-15T02:01:58;99458.22;;;7.36;88.01
51603;BME280;37954;51.980;5.850;2023-01-15T02:06:12;99476.47;;;7.39;87.64
51603;BME280;37954;51.980;5.850;2023-01-15T02:10:26;99458.84;;;7.26;86.65
51603;BME280;37954;51.980;5.850;2023-01-15T02:14:49;99465.66;;;7.34;87.25
51603;BME280;37954;51.980;5.850;2023-01-15T02:24:12;99468.22;;;7.29;87.04
51603;BME280;37954;51.980;5.850;2023-01-15T02:28:31;99470.34;;;7.27;86.77
51603;BME280;37954;51.980;5.850;2023-01-15T02:32:54;99478.00;;;7.23;86.89
51603;BME280;37954;51.980;5.850;2023-01-15T02:37:13;99468.59;;;7.21;86.82
51603;BME280;37954;51.980;5.850;2023-01-15T02:41:32;99467.06;;;7.13;87.38
51603;BME280;37954;51.980;5.850;2023-01-15T02:45:50;99457.78;;;7.04;87.55
51603;BME280;37954;51.980;5.850;2023-01-15T02:50:07;99476.47;;;7.04;87.38
51603;BME280;37954;51.980;5.850;2023-01-15T02:54:26;99454.31;;;6.92;87.71
51603;BME280;37954;51.980;5.850;2023-01-15T02:58:40;99455.44;;;6.84;87.27
51603;BME280;37954;51.980;5.850;2023-01-15T03:03:06;99469.25;;;6.93;87.90
51603;BME280;37954;51.980;5.850;2023-01-15T03:07:24;99455.34;;;6.91;88.15
51603;BME280;37954;51.980;5.850;2023-01-15T03:11:44;99438.50;;;6.90;88.64
51603;BME280;37954;51.980;5.850;2023-01-15T03:16:06;99449.78;;;6.92;88.94
51603;BME280;37954;51.980;5.850;2023-01-15T03:20:42;99434.69;;;6.86;89.25
51603;BME280;37954;51.980;5.850;2023-01-15T03:25:10;99421.44;;;6.80;88.50
51603;BME280;37954;51.980;5.850;2023-01-15T03:29:35;99446.63;;;6.84;88.77
51603;BME280;37954;51.980;5.850;2023-01-15T03:33:50;99443.94;;;6.84;89.01
51603;BME280;37954;51.980;5.850;2023-01-15T03:38:04;99430.84;;;6.82;88.57
51603;BME280;37954;51.980;5.850;2023-01-15T03:42:39;99425.97;;;6.79;89.05
51603;BME280;37954;51.980;5.850;2023-01-15T03:47:28;99429.34;;;6.75;88.52
51603;BME280;37954;51.980;5.850;2023-01-15T03:52:01;99432.81;;;6.75;88.54
51603;BME280;37954;51.980;5.850;2023-01-15T04:00:38;99434.31;;;6.71;87.81
51603;BME280;37954;51.980;5.850;2023-01-15T04:04:52;99437.56;;;6.73;87.88
51603;BME280;37954;51.980;5.850;2023-01-15T04:09:07;99418.53;;;6.70;88.28
51603;BME280;37954;51.980;5.850;2023-01-15T04:13:21;99431.41;;;6.73;88.86
51603;BME280;37954;51.980;5.850;2023-01-15T04:17:33;99418.63;;;6.63;88.38
51603;BME280;37954;51.980;5.850;2023-01-15T04:21:45;99417.22;;;6.60;87.82
51603;BME280;37954;51.980;5.850;2023-01-15T04:25:57;99433.72;;;6.57;88.02
51603;BME280;37954;51.980;5.850;2023-01-15T04:30:09;99421.75;;;6.48;87.55
51603;BME280;37954;51.980;5.850;2023-01-15T04:34:21;99440.44;;;6.60;88.19
51603;BME280;37954;51.980;5.850;2023-01-15T04:38:33;99425.00;;;6.50;88.06
51603;BME280;37954;51.980;5.850;2023-01-15T04:42:45;99416.03;;;6.45;87.50
51603;BME280;37954;51.980;5.850;2023-01-15T04:47:15;99424.41;;;6.48;87.39
51603;BME280;37954;51.980;5.850;2023-01-15T04:51:26;99417.09;;;6.44;87.20
51603;BME280;37954;51.980;5.850;2023-01-15T04:55:38;99421.28;;;6.40;87.33
51603;BME280;37954;51.980;5.850;2023-01-15T04:59:50;99429.72;;;6.37;87.35
51603;BME280;37954;51.980;5.850;2023-01-15T05:04:02;99438.56;;;6.49;87.47
51603;BME280;37954;51.980;5.850;2023-01-15T05:08:14;99433.22;;;6.49;87.33
51603;BME280;37954;51.980;5.850;2023-01-15T05:12:25;99437.88;;;6.53;86.94
51603;BME280;37954;51.980;5.850;2023-01-15T05:16:37;99446.81;;;6.59;86.88
51603;BME280;37954;51.980;5.850;2023-01-15T05:20:49;99437.28;;;6.51;86.70
51603;BME280;37954;51.980;5.850;2023-01-15T05:25:02;99437.44;;;6.56;86.46
51603;BME280;37954;51.980;5.850;2023-01-15T05:29:13;99429.06;;;6.53;87.40
51603;BME280;37954;51.980;5.850;2023-01-15T05:33:25;99424.97;;;6.39;86.52
51603;BME280;37954;51.980;5.850;2023-01-15T05:37:37;99423.00;;;6.34;86.47
51603;BME280;37954;51.980;5.850;2023-01-15T05:41:48;99417.28;;;6.31;86.87
51603;BME280;37954;51.980;5.850;2023-01-15T05:46:01;99403.50;;;6.22;86.41
51603;BME280;37954;51.980;5.850;2023-01-15T05:50:13;99416.16;;;6.38;86.14
51603;BME280;37954;51.980;5.850;2023-01-15T05:54:30;99423.00;;;6.34;86.34
51603;BME280;37954;51.980;5.850;2023-01-15T05:58:42;99416.34;;;6.25;86.85
51603;BME280;37954;51.980;5.850;2023-01-15T06:02:53;99419.56;;;6.15;86.41
51603;BME280;37954;51.980;5.850;2023-01-15T06:07:05;99403.56;;;6.15;86.41
51603;BME280;37954;51.980;5.850;2023-01-15T06:11:17;99401.59;;;6.11;86.60
51603;BME280;37954;51.980;5.850;2023-01-15T06:15:28;99424.94;;;6.27;86.31
51603;BME280;37954;51.980;5.850;2023-01-15T06:19:40;99423.31;;;6.26;85.82
51603;BME280;37954;51.980;5.850;2023-01-15T06:23:52;99416.22;;;6.20;85.80
51603;BME280;37954;51.980;5.850;2023-01-15T06:28:06;99435.34;;;6.17;85.25
51603;BME280;37954;51.980;5.850;2023-01-15T06:32:17;99419.06;;;6.07;85.83
51603;BME280;37954;51.980;5.850;2023-01-15T06:36:29;99426.94;;;6.02;84.93
51603;BME280;37954;51.980;5.850;2023-01-15T06:40:41;99430.66;;;6.01;84.62
51603;BME280;37954;51.980;5.850;2023-01-15T06:44:52;99424.00;;;5.91;84.55
51603;BME280;37954;51.980;5.850;2023-01-15T06:49:22;99429.47;;;5.97;84.70
51603;BME280;37954;51.980;5.850;2023-01-15T06:53:34;99431.84;;;6.05;85.14
51603;BME280;37954;51.980;5.850;2023-01-15T06:57:46;99423.72;;;6.11;84.90
51603;BME280;37954;51.980;5.850;2023-01-15T07:01:57;99431.88;;;6.16;84.42
51603;BME280;37954;51.980;5.850;2023-01-15T07:06:11;99441.16;;;6.25;84.66
51603;BME280;37954;51.980;5.850;2023-01-15T07:10:23;99449.47;;;6.17;84.91
51603;BME280;37954;51.980;5.850;2023-01-15T07:14:35;99462.59;;;6.19;85.74
51603;BME280;37954;51.980;5.850;2023-01-15T07:18:47;99447.81;;;6.05;86.05
51603;BME280;37954;51.980;5.850;2023-01-15T07:22:58;99461.97;;;6.05;86.07
51603;BME280;37954;51.980;5.850;2023-01-15T07:27:10;99449.88;;;5.84;86.52
51603;BME280;37954;51.980;5.850;2023-01-15T07:31:22;99449.44;;;5.87;86.62
51603;BME280;37954;51.980;5.850;2023-01-15T07:35:34;99446.00;;;5.69;86.37
51603;BME280;37954;51.980;5.850;2023-01-15T07:39:47;99436.66;;;5.59;86.75
51603;BME280;37954;51.980;5.850;2023-01-15T07:43:58;99446.66;;;5.64;86.21
51603;BME280;37954;51.980;5.850;2023-01-15T07:48:30;99439.63;;;5.51;85.78
51603;BME280;37954;51.980;5.850;2023-01-15T07:53:00;99453.53;;;5.53;85.96
51603;BME280;37954;51.980;5.850;2023-01-15T07:57:14;99441.31;;;5.46;85.82
51603;BME280;37954;51.980;5.850;2023-01-15T08:01:48;99460.47;;;5.54;86.99
51603;BME280;37954;51.980;5.850;2023-01-15T08:06:00;99466.91;;;5.47;86.82
51603;BME280;37954;51.980;5.850;2023-01-15T08:10:12;99479.72;;;5.56;86.05
51603;BME280;37954;51.980;5.850;2023-01-15T08:14:24;99458.72;;;5.48;86.00
51603;BME280;37954;51.980;5.850;2023-01-15T08:18:54;99449.31;;;5.46;85.96
51603;BME280;37954;51.980;5.850;2023-01-15T08:23:06;99460.94;;;5.51;85.39
51603;BME280;37954;51.980;5.850;2023-01-15T08:27:17;99449.16;;;5.59;85.55
51603;BME280;37954;51.980;5.850;2023-01-15T08:31:29;99458.56;;;5.62;85.03
51603;BME280;37954;51.980;5.850;2023-01-15T08:35:41;99452.25;;;5.56;83.86
51603;BME280;37954;51.980;5.850;2023-01-15T08:39:52;99456.75;;;5.74;83.23
51603;BME280;37954;51.980;5.850;2023-01-15T08:44:04;99456.09;;;5.78;83.26
51603;BME280;37954;51.980;5.850;2023-01-15T08:48:15;99453.38;;;5.85;82.43
51603;BME280;37954;51.980;5.850;2023-01-15T08:52:27;99463.56;;;6.06;81.96
51603;BME280;37954;51.980;5.850;2023-01-15T08:56:38;99459.34;;;6.17;81.05
51603;BME280;37954;51.980;5.850;2023-01-15T09:00:50;99458.06;;;6.19;81.55
51603;BME280;37954;51.980;5.850;2023-01-15T09:05:01;99470.41;;;6.32;81.04
51603;BME280;37954;51.980;5.850;2023-01-15T09:09:13;99466.59;;;6.40;80.36
51603;BME280;37954;51.980;5.850;2023-01-15T09:13:26;99462.94;;;6.64;79.77
51603;BME280;37954;51.980;5.850;2023-01-15T09:17:38;99459.16;;;6.95;79.11
51603;BME280;37954;51.980;5.850;2023-01-15T09:21:51;99449.88;;;7.32;78.17
51603;BME280;37954;51.980;5.850;2023-01-15T09:26:05;99446.81;;;8.32;77.14
51603;BME280;37954;51.980;5.850;2023-01-15T09:30:19;99464.63;;;9.05;73.97
51603;BME280;37954;51.980;5.850;2023-01-15T09:34:30;99456.22;;;9.35;72.55
51603;BME280;37954;51.980;5.850;2023-01-15T09:38:42;99470.22;;;9.21;70.09
51603;BME280;37954;51.980;5.850;2023-01-15T09:42:58;99475.69;;;9.09;69.84
51603;BME280;37954;51.980;5.850;2023-01-15T09:47:17;99457.28;;;8.96;70.25
51603;BME280;37954;51.980;5.850;2023-01-15T09:51:42;99471.00;;;8.83;70.81
51603;BME280;37954;51.980;5.850;2023-01-15T09:56:00;99461.16;;;8.71;70.87
51603;BME280;37954;51.980;5.850;2023-01-15T10:00:20;99461.47;;;9.08;70.85
51603;BME280;37954;51.980;5.850;2023-01-15T10:04:42;99466.06;;;9.90;71.19
51603;BME280;37954;51.980;5.850;2023-01-15T10:09:05;99469.66;;;10.44;69.17
51603;BME280;37954;51.980;5.850;2023-01-15T10:14:08;99486.31;;;10.46;66.45
51603;BME280;37954;51.980;5.850;2023-01-15T10:18:24;99481.69;;;10.69;65.94
51603;BME280;37954;51.980;5.850;2023-01-15T10:27:17;99476.78;;;10.61;64.26
51603;BME280;37954;51.980;5.850;2023-01-15T10:36:10;99472.72;;;10.09;65.18
51603;BME280;37954;51.980;5.850;2023-01-15T10:45:19;99494.06;;;9.77;65.67
51603;BME280;37954;51.980;5.850;2023-01-15T10:49:32;99480.06;;;9.54;65.54
51603;BME280;37954;51.980;5.850;2023-01-15T10:53:45;99488.84;;;9.66;65.77
51603;BME280;37954;51.980;5.850;2023-01-15T11:03:02;99501.53;;;9.37;66.71
51603;BME280;37954;51.980;5.850;2023-01-15T11:07:21;99476.81;;;9.13;66.59
51603;BME280;37954;51.980;5.850;2023-01-15T11:11:42;99467.16;;;8.95;66.50
51603;BME280;37954;51.980;5.850;2023-01-15T11:16:19;99472.91;;;9.04;66.97
51603;BME280;37954;51.980;5.850;2023-01-15T11:20:54;99486.06;;;9.22;66.66
51603;BME280;37954;51.980;5.850;2023-01-15T11:25:06;99491.84;;;9.14;66.69
51603;BME280;37954;51.980;5.850;2023-01-15T11:29:31;99490.78;;;8.98;67.22
51603;BME280;37954;51.980;5.850;2023-01-15T11:33:57;99477.19;;;9.22;67.85
51603;BME280;37954;51.980;5.850;2023-01-15T11:38:13;99494.50;;;9.31;67.92
51603;BME280;37954;51.980;5.850;2023-01-15T11:42:25;99492.88;;;9.30;67.83
51603;BME280;37954;51.980;5.850;2023-01-15T11:46:55;99493.03;;;9.23;67.82
51603;BME280;37954;51.980;5.850;2023-01-15T11:51:50;99513.91;;;9.04;69.00
51603;BME280;37954;51.980;5.850;2023-01-15T11:56:04;99495.31;;;8.81;69.32
51603;BME280;37954;51.980;5.850;2023-01-15T12:00:25;99493.44;;;8.65;71.57
51603;BME280;37954;51.980;5.850;2023-01-15T12:04:48;99491.34;;;8.38;73.54
51603;BME280;37954;51.980;5.850;2023-01-15T12:27:56;99480.56;;;8.50;75.23
51603;BME280;37954;51.980;5.850;2023-01-15T12:32:17;99463.66;;;8.61;74.26
51603;BME280;37954;51.980;5.850;2023-01-15T12:36:42;99475.56;;;8.54;74.37
51603;BME280;37954;51.980;5.850;2023-01-15T12:41:01;99489.97;;;8.24;75.60
51603;BME280;37954;51.980;5.850;2023-01-15T12:45:19;99483.28;;;8.10;76.64
51603;BME280;37954;51.980;5.850;2023-01-15T12:49:52;99474.47;;;7.98;77.53
51603;BME280;37954;51.980;5.850;2023-01-15T12:54:13;99473.34;;;7.94;77.61
51603;BME280;37954;51.980;5.850;2023-01-15T13:08:45;99468.25;;;7.81;79.69
51603;BME280;37954;51.980;5.850;2023-01-15T13:13:25;99470.53;;;8.00;79.82
51603;BME280;37954;51.980;5.850;2023-01-15T13:22:20;99482.38;;;8.04;78.68
51603;BME280;37954;51.980;5.850;2023-01-15T13:26:55;99478.13;;;7.92;78.34
51603;BME280;37954;51.980;5.850;2023-01-15T13:35:33;99464.06;;;7.85;78.79
51603;BME280;37954;51.980;5.850;2023-01-15T13:39:48;99478.00;;;7.87;78.71
51603;BME280;37954;51.980;5.850;2023-01-15T13:44:01;99489.88;;;7.91;79.20
51603;BME280;37954;51.980;5.850;2023-01-15T13:52:39;99482.88;;;7.90;79.25
51603;BME280;37954;51.980;5.850;2023-01-15T13:56:50;99483.25;;;7.82;79.94
51603;BME280;37954;51.980;5.850;2023-01-15T14:05:33;99519.19;;;7.74;80.93
51603;BME280;37954;51.980;5.850;2023-01-15T14:09:45;99520.00;;;7.63;81.64
51603;BME280;37954;51.980;5.850;2023-01-15T14:19:11;99513.03;;;7.50;82.56
51603;BME280;37954;51.980;5.850;2023-01-15T14:28:03;99508.50;;;7.51;82.75
51603;BME280;37954;51.980;5.850;2023-01-15T14:32:21;99518.03;;;7.47;82.74
51603;BME280;37954;51.980;5.850;2023-01-15T14:41:05;99528.13;;;7.45;82.52
51603;BME280;37954;51.980;5.850;2023-01-15T14:45:39;99524.91;;;7.54;82.68
51603;BME280;37954;51.980;5.850;2023-01-15T14:50:02;99517.22;;;7.34;82.24
51603;BME280;37954;51.980;5.850;2023-01-15T14:54:17;99528.50;;;7.37;82.28
51603;BME280;37954;51.980;5.850;2023-01-15T14:58:40;99520.94;;;7.45;83.05
51603;BME280;37954;51.980;5.850;2023-01-15T15:02:54;99530.34;;;7.48;83.37
51603;BME280;37954;51.980;5.850;2023-01-15T15:07:15;99537.22;;;7.55;83.25
51603;BME280;37954;51.980;5.850;2023-01-15T15:11:35;99538.13;;;7.49;82.56
51603;BME280;37954;51.980;5.850;2023-01-15T15:16:28;99548.47;;;7.46;82.24
51603;BME280;37954;51.980;5.850;2023-01-15T15:21:05;99543.72;;;7.36;81.81
51603;BME280;37954;51.980;5.850;2023-01-15T15:25:23;99545.75;;;7.11;82.10
51603;BME280;37954;51.980;5.850;2023-01-15T15:29:35;99546.94;;;7.03;82.53
51603;BME280;37954;51.980;5.850;2023-01-15T15:33:47;99535.72;;;6.83;82.84
51603;BME280;37954;51.980;5.850;2023-01-15T15:38:02;99540.22;;;6.71;83.43
51603;BME280;37954;51.980;5.850;2023-01-15T15:42:19;99529.97;;;6.56;84.00
51603;BME280;37954;51.980;5.850;2023-01-15T15:46:50;99568.78;;;6.70;84.29
51603;BME280;37954;51.980;5.850;2023-01-15T15:51:47;99570.84;;;6.68;85.52
51603;BME280;37954;51.980;5.850;2023-01-15T15:55:59;99561.66;;;6.64;85.95
51603;BME280;37954;51.980;5.850;2023-01-15T16:00:21;99566.91;;;6.71;85.87
51603;BME280;37954;51.980;5.850;2023-01-15T16:04:36;99562.63;;;6.70;86.37
51603;BME280;37954;51.980;5.850;2023-01-15T16:08:56;99551.28;;;6.74;86.48
51603;BME280;37954;51.980;5.850;2023-01-15T16:13:21;99571.41;;;7.00;86.33
51603;BME280;37954;51.980;5.850;2023-01-15T16:17:36;99587.44;;;7.12;86.42
51603;BME280;37954;51.980;5.850;2023-01-15T16:21:50;99558.41;;;7.04;86.40
51603;BME280;37954;51.980;5.850;2023-01-15T16:30:22;99577.94;;;7.16;85.17
51603;BME280;37954;51.980;5.850;2023-01-15T16:34:34;99578.06;;;7.21;84.86
51603;BME280;37954;51.980;5.850;2023-01-15T16:38:47;99575.63;;;7.19;84.13
51603;BME280;37954;51.980;5.850;2023-01-15T16:47:23;99577.72;;;7.17;83.66
51603;BME280;37954;51.980;5.850;2023-01-15T16:51:35;99584.91;;;7.17;83.24
51603;BME280;37954;51.980;5.850;2023-01-15T16:55:52;99570.72;;;7.05;82.81
51603;BME280;37954;51.980;5.850;2023-01-15T17:00:27;99589.56;;;7.10;82.24
51603;BME280;37954;51.980;5.850;2023-01-15T17:04:43;99595.69;;;7.10;82.47
51603;BME280;37954;51.980;5.850;2023-01-15T17:08:55;99615.31;;;7.16;82.26
51603;BME280;37954;51.980;5.850;2023-01-15T17:13:16;99608.91;;;7.05;82.26
51603;BME280;37954;51.980;5.850;2023-01-15T17:17:29;99592.63;;;6.95;81.94
51603;BME280;37954;51.980;5.850;2023-01-15T17:21:40;99615.97;;;6.99;82.03
51603;BME280;37954;51.980;5.850;2023-01-15T17:25:55;99603.28;;;6.83;81.87
51603;BME280;37954;51.980;5.850;2023-01-15T17:30:11;99604.44;;;6.87;82.41
51603;BME280;37954;51.980;5.850;2023-01-15T17:34:23;99617.88;;;6.81;81.80
51603;BME280;37954;51.980;5.850;2023-01-15T17:38:36;99635.84;;;6.74;81.82
51603;BME280;37954;51.980;5.850;2023-01-15T17:42:48;99632.44;;;6.67;82.47
51603;BME280;37954;51.980;5.850;2023-01-15T17:47:00;99636.00;;;6.60;82.32
51603;BME280;37954;51.980;5.850;2023-01-15T17:51:13;99626.09;;;6.49;82.63
51603;BME280;37954;51.980;5.850;2023-01-15T17:55:25;99609.22;;;6.37;82.20
51603;BME280;37954;51.980;5.850;2023-01-15T17:59:55;99620.59;;;6.26;82.28
51603;BME280;37954;51.980;5.850;2023-01-15T18:04:39;99643.72;;;6.32;82.37
51603;BME280;37954;51.980;5.850;2023-01-15T18:09:12;99633.66;;;6.16;83.08
51603;BME280;37954;51.980;5.850;2023-01-15T18:13:23;99631.28;;;6.08;82.88
51603;BME280;37954;51.980;5.850;2023-01-15T18:17:35;99637.19;;;6.10;83.14
51603;BME280;37954;51.980;5.850;2023-01-15T18:21:46;99646.59;;;6.12;83.16
51603;BME280;37954;51.980;5.850;2023-01-15T18:26:02;99634.25;;;6.00;83.20
51603;BME280;37954;51.980;5.850;2023-01-15T18:30:14;99626.47;;;5.98;83.82
51603;BME280;37954;51.980;5.850;2023-01-15T18:34:51;99649.38;;;6.06;83.36
51603;BME280;37954;51.980;5.850;2023-01-15T18:39:03;99645.28;;;6.03;83.42
51603;BME280;37954;51.980;5.850;2023-01-15T18:43:17;99645.78;;;5.93;83.72
51603;BME280;37954;51.980;5.850;2023-01-15T18:47:48;99638.03;;;5.85;83.44
51603;BME280;37954;51.980;5.850;2023-01-15T18:52:00;99637.72;;;5.75;83.72
51603;BME280;37954;51.980;5.850;2023-01-15T18:56:30;99647.97;;;5.72;83.64
51603;BME280;37954;51.980;5.850;2023-01-15T19:00:50;99651.31;;;5.67;83.71
51603;BME280;37954;51.980;5.850;2023-01-15T19:05:02;99639.91;;;5.60;83.46
51603;BME280;37954;51.980;5.850;2023-01-15T19:09:14;99640.19;;;5.52;84.20
51603;BME280;37954;51.980;5.850;2023-01-15T19:13:27;99634.69;;;5.47;84.33
51603;BME280;37954;51.980;5.850;2023-01-15T19:17:38;99649.19;;;5.51;84.02
51603;BME280;37954;51.980;5.850;2023-01-15T19:22:09;99636.97;;;5.43;84.57
51603;BME280;37954;51.980;5.850;2023-01-15T19:26:40;99643.06;;;5.50;84.41
51603;BME280;37954;51.980;5.850;2023-01-15T19:30:51;99635.78;;;5.64;84.44
51603;BME280;37954;51.980;5.850;2023-01-15T19:35:22;99649.03;;;5.71;83.90
51603;BME280;37954;51.980;5.850;2023-01-15T19:39:33;99636.81;;;5.63;83.84
51603;BME280;37954;51.980;5.850;2023-01-15T19:43:45;99632.28;;;5.64;83.60
51603;BME280;37954;51.980;5.850;2023-01-15T19:48:15;99625.75;;;5.59;83.94
51603;BME280;37954;51.980;5.850;2023-01-15T19:52:48;99624.56;;;5.55;84.08
51603;BME280;37954;51.980;5.850;2023-01-15T19:57:00;99625.97;;;5.58;83.84
51603;BME280;37954;51.980;5.850;2023-01-15T20:01:13;99618.06;;;5.51;84.20
51603;BME280;37954;51.980;5.850;2023-01-15T20:05:27;99606.03;;;5.42;83.67
51603;BME280;37954;51.980;5.850;2023-01-15T20:09:40;99597.84;;;5.44;83.97
51603;BME280;37954;51.980;5.850;2023-01-15T20:13:51;99585.50;;;5.24;84.27
51603;BME280;37954;51.980;5.850;2023-01-15T20:18:04;99584.69;;;5.24;84.08
51603;BME280;37954;51.980;5.850;2023-01-15T20:22:16;99581.06;;;5.18;84.14
51603;BME280;37954;51.980;5.850;2023-01-15T20:26:27;99568.00;;;5.10;84.19
51603;BME280;37954;51.980;5.850;2023-01-15T20:30:39;99552.47;;;5.07;84.49
51603;BME280;37954;51.980;5.850;2023-01-15T20:34:51;99554.91;;;5.09;84.46
51603;BME280;37954;51.980;5.850;2023-01-15T20:39:03;99564.50;;;5.16;84.75
51603;BME280;37954;51.980;5.850;2023-01-15T20:43:14;99547.34;;;5.06;84.94
51603;BME280;37954;51.980;5.850;2023-01-15T20:47:45;99551.78;;;5.18;85.54
51603;BME280;37954;51.980;5.850;2023-01-15T20:52:15;99549.81;;;5.32;85.45
51603;BME280;37954;51.980;5.850;2023-01-15T20:56:27;99535.38;;;5.40;86.03
51603;BME280;37954;51.980;5.850;2023-01-15T21:00:39;99535.59;;;5.63;85.99
51603;BME280;37954;51.980;5.850;2023-01-15T21:04:51;99523.47;;;5.67;85.56
51603;BME280;37954;51.980;5.850;2023-01-15T21:09:03;99508.06;;;5.69;85.48
51603;BME280;37954;51.980;5.850;2023-01-15T21:13:14;99528.13;;;5.90;85.31
51603;BME280;37954;51.980;5.850;2023-01-15T21:17:26;99512.97;;;5.90;84.91
51603;BME280;37954;51.980;5.850;2023-01-15T21:21:38;99499.63;;;5.90;84.70
51603;BME280;37954;51.980;5.850;2023-01-15T21:25:49;99492.91;;;5.88;85.09
51603;BME280;37954;51.980;5.850;2023-01-15T21:30:02;99487.13;;;5.91;84.77
51603;BME280;37954;51.980;5.850;2023-01-15T21:34:14;99482.75;;;5.97;84.92
51603;BME280;37954;51.980;5.850;2023-01-15T21:38:26;99476.03;;;5.94;84.36
51603;BME280;37954;51.980;5.850;2023-01-15T21:42:37;99481.72;;;5.98;84.47
51603;BME280;37954;51.980;5.850;2023-01-15T21:47:10;99468.47;;;5.91;84.33
51603;BME280;37954;51.980;5.850;2023-01-15T21:51:23;99454.47;;;5.96;84.65
51603;BME280;37954;51.980;5.850;2023-01-15T21:55:35;99444.72;;;5.89;84.36
51603;BME280;37954;51.980;5.850;2023-01-15T21:59:47;99442.50;;;5.86;84.52
51603;BME280;37954;51.980;5.850;2023-01-15T22:03:59;99442.63;;;5.91;84.75
51603;BME280;37954;51.980;5.850;2023-01-15T22:08:10;99434.66;;;5.91;84.21
51603;BME280;37954;51.980;5.850;2023-01-15T22:12:22;99419.69;;;5.90;84.53
51603;BME280;37954;51.980;5.850;2023-01-15T22:16:33;99385.22;;;5.77;84.35
51603;BME280;37954;51.980;5.850;2023-01-15T22:20:55;99401.63;;;5.92;84.13
51603;BME280;37954;51.980;5.850;2023-01-15T22:25:07;99389.13;;;5.93;84.47
51603;BME280;37954;51.980;5.850;2023-01-15T22:29:29;99374.75;;;5.94;84.54
51603;BME280;37954;51.980;5.850;2023-01-15T22:33:41;99376.16;;;5.97;84.92
51603;BME280;37954;51.980;5.850;2023-01-15T22:37:52;99367.34;;;5.96;84.59
51603;BME280;37954;51.980;5.850;2023-01-15T22:42:04;99357.50;;;5.97;84.80
51603;BME280;37954;51.980;5.850;2023-01-15T22:46:35;99338.84;;;5.97;84.82
51603;BME280;37954;51.980;5.850;2023-01-15T22:50:46;99339.81;;;6.02;85.16
51603;BME280;37954;51.980;5.850;2023-01-15T22:54:58;99331.09;;;6.07;85.01
51603;BME280;37954;51.980;5.850;2023-01-15T22:59:10;99327.63;;;6.06;84.89
51603;BME280;37954;51.980;5.850;2023-01-15T23:03:22;99309.31;;;6.10;84.69
51603;BME280;37954;51.980;5.850;2023-01-15T23:07:35;99309.91;;;6.12;84.60
51603;BME280;37954;51.980;5.850;2023-01-15T23:11:48;99302.63;;;6.19;84.92
51603;BME280;37954;51.980;5.850;2023-01-15T23:16:01;99301.00;;;6.18;84.72
51603;BME280;37954;51.980;5.850;2023-01-15T23:20:13;99287.00;;;6.22;84.88
51603;BME280;37954;51.980;5.850;2023-01-15T23:24:25;99271.81;;;6.23;84.96
51603;BME280;37954;51.980;5.850;2023-01-15T23:28:37;99266.47;;;6.23;84.98
51603;BME280;37954;51.980;5.850;2023-01-15T23:32:48;99257.53;;;6.17;85.05
51603;BME280;37954;51.980;5.850;2023-01-15T23:37:00;99266.94;;;6.20;85.12
51603;BME280;37954;51.980;5.850;2023-01-15T23:41:14;99268.88;;;6.24;85.74
51603;BME280;37954;51.980;5.850;2023-01-15T23:45:26;99251.41;;;6.17;85.63
51603;BME280;37954;51.980;5.850;2023-01-15T23:50:10;99251.53;;;6.22;86.10
51603;BME280;37954;51.980;5.850;2023-01-15T23:54:22;99236.69;;;6.14;86.27
51603;BME280;37954;51.980;5.850;2023-01-15T23:58:37;99235.41;;;6.17;86.49
